Time;durP1;ratioP1;P1;durP2;ratioP2;P2;SDS_P1;SDS_P2;PMS_P1;PMS_P2;Temp;Humidity;BMP_temperature;BMP_pressure;BME280_temperature;BME280_humidity;BME280_pressure;Samples;Min_cycle;Max_cycle;Signal;HPM_P1;HPM_P2
2024/04/04 00:01:59;;;;;;;4.28;1.33;;;9.00;99.90;;;;;;5080873;28;20131;-71
2024/04/04 00:04:27;;;;;;;5.35;1.27;;;8.80;99.90;;;;;;5080454;28;20032;-71
2024/04/04 00:06:53;;;;;;;4.45;1.13;;;8.90;99.90;;;;;;5078802;28;20039;-71
2024/04/04 00:09:19;;;;;;;4.57;1.25;;;8.80;99.90;;;;;;5080305;28;20040;-71
2024/04/04 00:11:44;;;;;;;4.55;1.25;;;8.60;99.90;;;;;;5080690;28;20119;-72
2024/04/04 00:14:10;;;;;;;2.50;1.20;;;8.70;99.90;;;;;;5079040;28;20028;-72
2024/04/04 00:16:37;;;;;;;3.60;1.20;;;8.40;99.90;;;;;;5079284;28;20110;-71
2024/04/04 00:19:03;;;;;;;3.05;1.05;;;8.30;99.90;;;;;;5080099;28;20035;-71
2024/04/04 00:21:30;;;;;;;3.45;1.40;;;8.30;99.90;;;;;;5080402;28;20042;-71
2024/04/04 00:23:58;;;;;;;2.67;1.13;;;8.40;99.90;;;;;;5079564;28;20020;-71
2024/04/04 00:26:25;;;;;;;7.10;1.50;;;8.50;99.90;;;;;;5079727;28;20040;-71
2024/04/04 00:28:50;;;;;;;2.50;0.90;;;8.50;99.90;;;;;;5079327;28;20126;-71
2024/04/04 00:31:16;;;;;;;3.78;1.33;;;8.60;99.90;;;;;;5079889;28;20043;-71
2024/04/04 00:33:42;;;;;;;4.35;1.67;;;8.70;99.90;;;;;;5079623;28;20092;-73
2024/04/04 00:36:07;;;;;;;1.40;0.77;;;8.60;99.90;;;;;;5079892;28;20032;-71
2024/04/04 00:38:34;;;;;;;3.78;1.20;;;8.50;99.90;;;;;;5077569;28;20028;-71
2024/04/04 00:41:01;;;;;;;4.00;1.95;;;8.40;99.90;;;;;;5079431;28;20114;-71
2024/04/04 00:43:26;;;;;;;3.03;1.15;;;8.20;99.90;;;;;;5079933;28;20116;-71
2024/04/04 00:45:52;;;;;;;5.90;1.50;;;8.20;99.90;;;;;;5079431;28;20486;-71
2024/04/04 00:48:18;;;;;;;3.50;1.40;;;8.10;99.90;;;;;;5078926;28;20059;-71
2024/04/04 00:50:45;;;;;;;2.88;1.13;;;8.10;99.90;;;;;;5079713;28;20589;-71
2024/04/04 00:53:11;;;;;;;4.75;1.65;;;8.10;99.90;;;;;;5073994;28;20063;-71
2024/04/04 00:55:37;;;;;;;3.08;1.13;;;8.10;99.90;;;;;;5078824;28;20108;-71
2024/04/04 00:58:04;;;;;;;4.03;1.27;;;7.90;99.90;;;;;;5077860;28;20035;-71
2024/04/04 01:00:29;;;;;;;3.42;1.08;;;7.90;99.90;;;;;;5079484;28;20113;-71
2024/04/04 01:02:56;;;;;;;4.25;1.02;;;8.00;99.90;;;;;;5076407;28;20031;-71
2024/04/04 01:05:22;;;;;;;4.50;0.90;;;8.20;99.90;;;;;;5078935;28;20039;-71
2024/04/04 01:07:49;;;;;;;7.05;1.30;;;8.10;99.90;;;;;;5079209;28;20042;-71
2024/04/04 01:10:15;;;;;;;5.10;1.73;;;8.30;99.90;;;;;;5078685;28;20053;-71
2024/04/04 01:12:41;;;;;;;6.32;1.35;;;8.20;99.90;;;;;;5079051;28;20040;-71
2024/04/04 01:15:07;;;;;;;3.17;1.08;;;8.10;99.90;;;;;;5080095;28;20512;-71
2024/04/04 01:17:34;;;;;;;5.85;1.70;;;8.10;99.90;;;;;;5078887;28;20118;-71
2024/04/04 01:19:59;;;;;;;3.28;1.30;;;8.10;99.90;;;;;;5078504;28;20036;-71
2024/04/04 01:22:25;;;;;;;3.63;0.90;;;8.20;99.90;;;;;;5076827;28;20036;-71
2024/04/04 01:24:51;;;;;;;4.80;2.00;;;8.20;99.90;;;;;;5079520;28;20154;-71
2024/04/04 01:27:17;;;;;;;4.30;1.17;;;8.20;99.90;;;;;;5079684;28;20389;-71
2024/04/04 01:29:43;;;;;;;7.25;1.60;;;8.30;99.90;;;;;;5079385;28;20393;-71
2024/04/04 01:32:09;;;;;;;5.15;1.10;;;8.40;99.90;;;;;;5077919;28;20115;-71
2024/04/04 01:34:34;;;;;;;4.45;1.38;;;8.10;99.90;;;;;;5078751;28;20024;-71
2024/04/04 01:37:00;;;;;;;4.25;1.30;;;8.10;99.90;;;;;;5078577;28;20046;-71
2024/04/04 01:39:29;;;;;;;3.40;1.40;;;8.00;99.90;;;;;;5078718;28;20052;-71
2024/04/04 01:41:55;;;;;;;4.38;1.58;;;8.00;99.90;;;;;;5077085;28;20032;-71
2024/04/04 01:44:21;;;;;;;4.57;1.88;;;8.10;99.90;;;;;;5078468;28;20032;-71
2024/04/04 01:46:47;;;;;;;3.67;1.20;;;8.30;99.90;;;;;;5079112;28;20028;-71
2024/04/04 01:49:14;;;;;;;4.15;1.50;;;8.20;99.90;;;;;;5079246;28;20507;-71
2024/04/04 01:51:40;;;;;;;5.35;1.83;;;8.20;99.90;;;;;;5080045;28;20153;-72
2024/04/04 01:54:06;;;;;;;5.00;1.55;;;8.20;99.90;;;;;;5081497;28;20057;-71
2024/04/04 01:56:31;;;;;;;4.43;1.42;;;8.20;99.90;;;;;;5082959;28;20028;-71
2024/04/04 01:58:57;;;;;;;2.92;1.23;;;8.20;99.90;;;;;;5083326;28;20032;-71
2024/04/04 02:01:23;;;;;;;3.97;1.33;;;8.20;99.90;;;;;;5081168;28;20032;-71
2024/04/04 02:03:48;;;;;;;4.00;1.30;;;8.10;99.90;;;;;;5082067;28;20111;-71
2024/04/04 02:06:14;;;;;;;3.08;1.30;;;8.10;99.90;;;;;;5082847;28;20035;-71
2024/04/04 02:08:40;;;;;;;3.50;1.70;;;8.10;99.90;;;;;;5082773;28;20172;-71
2024/04/04 02:11:06;;;;;;;4.72;1.63;;;8.30;99.90;;;;;;5082943;28;20040;-71
2024/04/04 02:13:32;;;;;;;3.85;1.33;;;8.40;99.90;;;;;;5081488;28;20032;-71
2024/04/04 02:15:58;;;;;;;5.30;1.48;;;8.40;99.90;;;;;;5083043;28;20106;-71
2024/04/04 02:18:24;;;;;;;2.95;1.63;;;8.10;99.90;;;;;;5082593;28;20046;-71
2024/04/04 02:20:50;;;;;;;2.42;1.52;;;7.80;99.90;;;;;;5082801;28;20135;-71
2024/04/04 02:23:15;;;;;;;4.15;1.27;;;7.70;99.90;;;;;;5081449;28;20024;-71
2024/04/04 02:25:42;;;;;;;4.47;2.00;;;7.80;99.90;;;;;;5083120;28;20525;-72
2024/04/04 02:28:09;;;;;;;4.13;1.95;;;7.90;99.90;;;;;;5082752;28;20035;-71
2024/04/04 02:30:38;;;;;;;5.07;1.33;;;8.10;99.90;;;;;;5082101;28;20064;-71
2024/04/04 02:33:04;;;;;;;4.18;1.63;;;8.10;99.90;;;;;;5080944;28;20036;-71
2024/04/04 02:35:30;;;;;;;3.60;1.17;;;7.90;99.90;;;;;;5082320;28;20032;-71
2024/04/04 02:37:56;;;;;;;5.93;1.23;;;7.80;99.90;;;;;;5081815;28;20396;-71
2024/04/04 02:40:22;;;;;;;4.72;1.30;;;7.80;99.90;;;;;;5082199;28;20047;-71
2024/04/04 02:42:48;;;;;;;5.70;1.60;;;8.10;99.90;;;;;;5081084;28;20390;-71
2024/04/04 02:45:14;;;;;;;3.45;1.50;;;7.80;99.90;;;;;;5081823;28;20024;-71
2024/04/04 02:47:39;;;;;;;6.85;1.75;;;7.90;99.90;;;;;;5081365;28;20032;-71
2024/04/04 02:50:05;;;;;;;5.90;1.55;;;7.90;99.90;;;;;;5082195;28;20619;-71
2024/04/04 02:52:31;;;;;;;3.38;1.20;;;7.90;99.90;;;;;;5081218;28;20520;-71
2024/04/04 02:54:56;;;;;;;3.65;1.40;;;7.80;99.90;;;;;;5082060;28;20024;-71
2024/04/04 02:57:22;;;;;;;3.67;1.52;;;7.90;99.90;;;;;;5082168;28;20054;-71
2024/04/04 02:59:48;;;;;;;4.88;1.60;;;7.90;99.90;;;;;;5081465;28;20020;-71
2024/04/04 03:02:13;;;;;;;4.22;1.33;;;7.90;99.90;;;;;;5077345;28;20129;-71
2024/04/04 03:04:39;;;;;;;4.97;1.10;;;7.80;99.90;;;;;;5073936;28;20036;-71
2024/04/04 03:07:05;;;;;;;4.45;1.38;;;7.80;99.90;;;;;;5077207;28;20039;-72
2024/04/04 03:09:31;;;;;;;3.78;1.50;;;7.70;99.90;;;;;;5076359;28;20669;-72
2024/04/04 03:11:57;;;;;;;3.75;1.50;;;7.70;99.90;;;;;;5076110;28;20036;-72
2024/04/04 03:14:23;;;;;;;6.30;1.80;;;8.00;99.90;;;;;;5076066;28;20036;-71
2024/04/04 03:16:49;;;;;;;5.35;1.55;;;7.80;99.90;;;;;;5075291;28;20028;-73
2024/04/04 03:19:14;;;;;;;3.72;1.48;;;7.70;99.90;;;;;;5072615;28;20096;-71
2024/04/04 03:21:41;;;;;;;3.90;1.17;;;7.70;99.90;;;;;;5073563;28;20028;-73
2024/04/04 03:24:06;;;;;;;4.18;1.20;;;7.70;99.90;;;;;;5074477;28;20036;-71
2024/04/04 03:26:33;;;;;;;3.70;1.42;;;7.60;99.90;;;;;;5074614;28;20042;-73
2024/04/04 03:29:00;;;;;;;3.95;1.50;;;7.70;99.90;;;;;;5073765;28;20055;-71
2024/04/04 03:31:25;;;;;;;4.22;1.70;;;7.80;99.90;;;;;;5076428;28;20529;-72
2024/04/04 03:33:51;;;;;;;4.20;1.38;;;7.90;99.90;;;;;;5077607;28;20028;-71
2024/04/04 03:36:17;;;;;;;5.53;1.35;;;7.90;99.90;;;;;;5076144;28;20040;-71
2024/04/04 03:38:42;;;;;;;3.70;1.50;;;8.00;99.90;;;;;;5077349;28;20036;-71
2024/04/04 03:41:08;;;;;;;4.78;1.83;;;7.90;99.90;;;;;;5076121;28;20063;-71
2024/04/04 03:43:34;;;;;;;3.97;1.70;;;8.00;99.90;;;;;;5076672;28;20040;-72
2024/04/04 03:46:06;;;;;;;4.82;2.00;;;8.10;99.90;;;;;;5075574;28;20036;-72
2024/04/04 03:48:34;;;;;;;5.03;2.00;;;8.20;99.90;;;;;;5076579;28;20047;-71
2024/04/04 03:51:00;;;;;;;4.70;1.67;;;8.30;99.90;;;;;;5076033;28;20611;-72
2024/04/04 03:53:26;;;;;;;5.40;1.92;;;8.30;99.90;;;;;;5076556;28;20036;-71
2024/04/04 03:55:52;;;;;;;5.22;1.48;;;8.00;99.90;;;;;;5075829;28;20644;-71
2024/04/04 03:58:18;;;;;;;6.03;1.63;;;8.10;99.90;;;;;;5075004;28;20024;-72
2024/04/04 04:00:45;;;;;;;7.20;1.80;;;8.10;99.90;;;;;;5071811;28;21160;-72
2024/04/04 04:03:11;;;;;;;5.07;1.10;;;7.90;99.90;;;;;;5073706;28;20028;-72
2024/04/04 04:05:36;;;;;;;4.07;1.20;;;7.80;99.90;;;;;;5073365;28;20086;-71
2024/04/04 04:08:02;;;;;;;5.60;1.17;;;7.70;99.90;;;;;;5073793;28;20071;-72
2024/04/04 04:10:30;;;;;;;7.95;1.80;;;7.50;99.90;;;;;;5071187;28;20124;-71
2024/04/04 04:12:56;;;;;;;3.00;1.20;;;7.50;99.90;;;;;;5072713;28;20035;-72
2024/04/04 04:15:22;;;;;;;5.57;1.90;;;7.60;99.90;;;;;;5072931;28;20370;-73
2024/04/04 04:17:47;;;;;;;5.30;1.65;;;7.60;99.90;;;;;;5071133;28;20054;-71
2024/04/04 04:22:57;;;;;;;3.75;1.50;;;7.70;99.90;;;;;;5072942;28;20051;-72
2024/04/04 04:25:23;;;;;;;5.40;1.95;;;7.80;99.90;;;;;;5072847;28;20513;-72
2024/04/04 04:27:49;;;;;;;4.30;1.58;;;7.80;99.90;;;;;;5071966;28;20035;-71
2024/04/04 04:30:15;;;;;;;6.40;1.60;;;7.50;99.90;;;;;;5070152;28;20923;-72
2024/04/04 04:32:41;;;;;;;4.15;1.73;;;7.40;99.90;;;;;;5072144;28;20436;-71
2024/04/04 04:35:07;;;;;;;4.88;1.88;;;7.30;99.90;;;;;;5073665;28;20055;-72
2024/04/04 04:37:33;;;;;;;4.90;1.73;;;7.40;99.90;;;;;;5072090;28;20371;-71
2024/04/04 04:39:59;;;;;;;5.50;1.63;;;7.50;99.90;;;;;;5072449;28;20052;-72
2024/04/04 04:42:25;;;;;;;5.18;1.55;;;7.50;99.90;;;;;;5072636;28;20036;-72
2024/04/04 04:44:51;;;;;;;3.05;1.27;;;7.60;99.90;;;;;;5071727;28;20035;-71
2024/04/04 04:47:16;;;;;;;4.00;1.88;;;7.40;99.90;;;;;;5073466;28;20032;-72
2024/04/04 04:49:42;;;;;;;4.47;1.38;;;7.40;99.90;;;;;;5070435;28;20051;-72
2024/04/04 04:52:08;;;;;;;6.20;1.38;;;7.40;99.90;;;;;;5070809;28;20043;-72
2024/04/04 04:54:34;;;;;;;3.47;1.45;;;7.50;99.90;;;;;;5072443;28;20439;-72
2024/04/04 04:57:01;;;;;;;4.88;1.80;;;7.60;99.90;;;;;;5072946;28;20058;-72
2024/04/04 04:59:27;;;;;;;3.95;1.50;;;7.60;99.90;;;;;;5071052;28;20391;-72
2024/04/04 05:01:52;;;;;;;6.00;2.38;;;7.40;99.90;;;;;;5072176;28;20543;-73
2024/04/04 05:04:20;;;;;;;3.25;1.70;;;7.30;99.90;;;;;;5071224;28;20289;-71
2024/04/04 05:06:46;;;;;;;7.65;1.85;;;7.30;99.90;;;;;;5072576;28;20035;-71
2024/04/04 05:09:13;;;;;;;7.28;1.90;;;7.30;99.90;;;;;;5070860;28;20107;-71
2024/04/04 05:11:39;;;;;;;7.07;1.80;;;7.30;99.90;;;;;;5072409;28;20062;-72
2024/04/04 05:14:04;;;;;;;6.72;2.10;;;7.40;99.90;;;;;;5071814;28;20489;-72
2024/04/04 05:16:30;;;;;;;5.25;2.03;;;7.50;99.90;;;;;;5072833;28;20039;-71
2024/04/04 05:18:56;;;;;;;4.70;1.98;;;7.40;99.90;;;;;;5073639;28;20126;-71
2024/04/04 05:21:22;;;;;;;5.28;1.88;;;7.50;99.90;;;;;;5071358;28;20091;-70
2024/04/04 05:23:47;;;;;;;3.88;1.50;;;7.50;99.90;;;;;;5072869;28;20032;-72
2024/04/04 05:26:13;;;;;;;4.93;1.55;;;7.40;99.90;;;;;;5071680;28;21260;-71
2024/04/04 05:28:40;;;;;;;6.55;2.03;;;7.60;99.90;;;;;;5071172;28;20028;-72
2024/04/04 05:31:06;;;;;;;3.85;1.90;;;7.60;99.90;;;;;;5071362;28;20075;-74
2024/04/04 05:33:32;;;;;;;4.50;1.75;;;7.60;99.90;;;;;;5072690;28;20115;-71
2024/04/04 05:35:58;;;;;;;3.03;1.40;;;7.70;99.90;;;;;;5070059;28;20020;-72
2024/04/04 05:38:24;;;;;;;5.20;1.40;;;7.60;99.90;;;;;;5070564;28;20515;-72
2024/04/04 05:40:50;;;;;;;3.22;1.25;;;7.60;99.90;;;;;;5070014;28;20651;-73
2024/04/04 05:43:15;;;;;;;9.68;2.03;;;7.60;99.90;;;;;;5069931;28;20043;-74
2024/04/04 05:45:41;;;;;;;7.97;1.85;;;7.80;99.90;;;;;;5071551;28;20959;-72
2024/04/04 05:48:07;;;;;;;3.28;1.58;;;7.60;99.90;;;;;;5071039;28;20669;-72
2024/04/04 05:50:35;;;;;;;3.45;1.40;;;7.70;99.90;;;;;;5070585;28;20036;-72
2024/04/04 05:53:01;;;;;;;6.15;1.73;;;7.80;99.90;;;;;;5062333;28;20608;-73
2024/04/04 05:55:27;;;;;;;5.68;1.70;;;7.80;99.90;;;;;;5070181;28;20032;-73
2024/04/04 05:57:53;;;;;;;5.60;1.65;;;8.00;99.90;;;;;;5070429;28;20085;-74
2024/04/04 06:00:18;;;;;;;3.60;1.60;;;8.10;99.90;;;;;;5071065;28;20417;-73
2024/04/04 06:02:44;;;;;;;3.42;1.60;;;8.10;99.90;;;;;;5070708;28;20028;-73
2024/04/04 06:05:10;;;;;;;5.00;2.03;;;8.00;99.90;;;;;;5071813;28;20035;-73
2024/04/04 06:07:36;;;;;;;3.33;1.60;;;8.00;99.90;;;;;;5071439;28;20541;-73
2024/04/04 06:10:02;;;;;;;5.35;2.58;;;7.90;99.90;;;;;;5070516;28;20036;-73
2024/04/04 06:12:27;;;;;;;5.25;1.52;;;7.90;99.90;;;;;;5070845;28;20044;-73
2024/04/04 06:14:53;;;;;;;5.07;1.63;;;7.90;99.90;;;;;;5071309;28;20132;-74
2024/04/04 06:17:18;;;;;;;6.35;1.95;;;7.80;99.90;;;;;;5071438;28;20113;-73
2024/04/04 06:19:44;;;;;;;4.22;1.73;;;8.00;99.90;;;;;;5071768;28;20024;-73
2024/04/04 06:22:10;;;;;;;4.07;1.95;;;8.10;99.90;;;;;;5070920;28;20047;-73
2024/04/04 06:24:35;;;;;;;3.75;1.65;;;8.30;99.90;;;;;;5071705;28;20377;-74
2024/04/04 06:27:01;;;;;;;2.83;1.30;;;8.40;99.90;;;;;;5070490;28;20069;-73
2024/04/04 06:29:27;;;;;;;3.88;1.60;;;8.50;99.90;;;;;;5071667;28;20032;-74
2024/04/04 06:31:53;;;;;;;5.05;1.75;;;8.50;99.90;;;;;;5071032;28;20034;-73
2024/04/04 06:34:19;;;;;;;2.42;1.30;;;8.70;99.90;;;;;;5070485;28;20024;-75
2024/04/04 06:36:45;;;;;;;3.30;1.50;;;8.80;99.90;;;;;;5072462;28;20070;-73
2024/04/04 06:39:12;;;;;;;4.38;1.70;;;8.80;99.90;;;;;;5075095;28;20032;-74
2024/04/04 06:41:38;;;;;;;4.30;1.27;;;8.80;99.90;;;;;;5074903;28;20104;-74
2024/04/04 06:44:04;;;;;;;3.28;1.33;;;8.90;99.90;;;;;;5073576;28;20050;-73
2024/04/04 06:46:30;;;;;;;3.95;1.25;;;8.90;99.90;;;;;;5075001;28;20374;-73
2024/04/04 06:48:56;;;;;;;3.15;1.27;;;9.00;99.90;;;;;;5074934;28;20067;-74
2024/04/04 06:51:23;;;;;;;4.72;1.58;;;9.10;99.90;;;;;;5075293;28;20099;-73
2024/04/04 06:53:49;;;;;;;3.13;1.40;;;9.20;99.90;;;;;;5074013;28;20385;-73
2024/04/04 06:56:14;;;;;;;3.47;1.65;;;9.20;99.90;;;;;;5073720;28;20035;-73
2024/04/04 06:58:40;;;;;;;5.05;2.00;;;9.90;99.90;;;;;;5074102;28;20036;-73
2024/04/04 07:01:07;;;;;;;3.28;1.92;;;11.90;99.90;;;;;;5073990;28;20374;-73
2024/04/04 07:03:32;;;;;;;3.70;1.80;;;13.60;99.90;;;;;;5073424;28;20028;-73
2024/04/04 07:05:58;;;;;;;2.42;1.15;;;15.20;99.90;;;;;;5073510;28;20024;-75
2024/04/04 07:08:24;;;;;;;3.10;1.55;;;15.60;98.50;;;;;;5075063;28;20024;-74
2024/04/04 07:10:49;;;;;;;4.07;1.40;;;15.90;98.30;;;;;;5073889;28;20066;-74
2024/04/04 07:13:16;;;;;;;3.72;1.75;;;16.10;99.10;;;;;;5074121;28;20378;-74
2024/04/04 07:15:42;;;;;;;3.60;1.63;;;17.10;97.90;;;;;;5073414;28;20107;-74
2024/04/04 07:18:10;;;;;;;4.40;1.25;;;17.30;96.90;;;;;;5073047;28;20046;-74
2024/04/04 07:20:37;;;;;;;11.80;1.95;;;16.60;98.10;;;;;;5074099;28;20038;-74
2024/04/04 07:23:03;;;;;;;4.90;1.60;;;16.30;98.00;;;;;;5073689;28;20040;-74
2024/04/04 07:25:29;;;;;;;4.95;1.63;;;13.40;99.90;;;;;;5072846;28;21304;-74
2024/04/04 07:27:55;;;;;;;7.50;1.45;;;11.80;99.90;;;;;;5071717;28;20115;-73
2024/04/04 07:30:21;;;;;;;8.40;2.42;;;11.30;99.90;;;;;;5074182;28;20051;-73
2024/04/04 07:32:47;;;;;;;6.15;2.00;;;11.00;99.90;;;;;;5073463;28;20036;-73
2024/04/04 07:35:13;;;;;;;7.30;2.65;;;10.80;99.90;;;;;;5073684;28;20088;-73
2024/04/04 07:37:38;;;;;;;4.82;1.92;;;10.60;99.90;;;;;;5072867;28;20474;-73
2024/04/04 07:40:05;;;;;;;7.03;2.63;;;10.30;99.90;;;;;;5073874;28;20063;-75
2024/04/04 07:42:31;;;;;;;6.43;2.35;;;10.10;99.90;;;;;;5073965;28;20036;-74
2024/04/04 07:44:56;;;;;;;4.13;1.90;;;10.00;99.90;;;;;;5072988;28;20044;-73
2024/04/04 07:47:22;;;;;;;5.72;2.35;;;10.00;99.90;;;;;;5073188;28;20120;-74
2024/04/04 07:49:48;;;;;;;5.95;2.08;;;10.10;99.90;;;;;;5072704;28;20097;-73
2024/04/04 07:52:14;;;;;;;5.43;2.38;;;10.00;99.90;;;;;;5071894;28;20024;-73
2024/04/04 07:54:39;;;;;;;4.95;2.40;;;10.00;99.90;;;;;;5073749;28;20111;-73
2024/04/04 07:57:06;;;;;;;3.65;2.13;;;10.00;99.90;;;;;;5071990;28;20043;-73
2024/04/04 07:59:32;;;;;;;4.88;2.13;;;10.10;99.90;;;;;;5071976;28;20224;-73
2024/04/04 08:01:58;;;;;;;6.32;2.08;;;10.10;99.90;;;;;;5072458;28;20030;-73
2024/04/04 08:04:24;;;;;;;4.75;1.92;;;10.10;99.90;;;;;;5074994;28;20028;-72
2024/04/04 08:06:49;;;;;;;8.27;2.60;;;10.30;99.90;;;;;;5077035;28;20028;-73
2024/04/04 08:09:15;;;;;;;4.85;2.15;;;10.30;99.90;;;;;;5075443;28;20040;-73
2024/04/04 08:11:41;;;;;;;7.13;2.40;;;10.40;99.90;;;;;;5076541;28;20439;-74
2024/04/04 08:14:07;;;;;;;5.32;2.15;;;10.50;99.90;;;;;;5076413;28;20501;-74
2024/04/04 08:16:33;;;;;;;3.95;1.83;;;10.50;99.90;;;;;;5076496;28;20111;-73
2024/04/04 08:18:58;;;;;;;6.25;1.80;;;10.60;99.90;;;;;;5075931;28;20579;-74
2024/04/04 08:21:24;;;;;;;5.35;2.15;;;10.70;99.90;;;;;;5076223;28;20100;-73
2024/04/04 08:23:50;;;;;;;4.85;1.77;;;10.70;99.90;;;;;;5076930;28;20481;-73
2024/04/04 08:26:22;;;;;;;5.50;1.75;;;10.80;99.90;;;;;;5074068;28;20036;-73
2024/04/04 08:28:48;;;;;;;3.97;1.75;;;11.00;99.90;;;;;;5076124;28;20028;-72
2024/04/04 08:31:13;;;;;;;6.20;2.10;;;11.00;99.90;;;;;;5072192;28;20095;-73
2024/04/04 08:33:39;;;;;;;5.07;1.90;;;11.20;99.90;;;;;;5071638;28;20052;-75
2024/04/04 08:36:05;;;;;;;5.13;1.92;;;11.20;99.90;;;;;;5071310;28;20092;-74
2024/04/04 08:38:30;;;;;;;5.30;2.20;;;11.20;99.90;;;;;;5072030;28;20032;-73
2024/04/04 08:41:05;;;;;;;6.47;1.60;;;11.40;99.90;;;;;;5071360;28;20642;-73
2024/04/04 08:43:31;;;;;;;4.18;2.10;;;11.40;99.90;;;;;;5071580;28;20653;-73
2024/04/04 08:46:01;;;;;;;11.18;2.45;;;11.50;99.90;;;;;;5072266;28;20587;-73
2024/04/04 08:48:27;;;;;;;5.47;2.28;;;11.60;99.90;;;;;;5071444;28;20390;-74
2024/04/04 08:50:53;;;;;;;10.20;2.42;;;11.70;99.90;;;;;;5071379;28;20067;-75
2024/04/04 08:53:23;;;;;;;5.63;1.95;;;11.70;99.90;;;;;;5072216;28;20052;-73
2024/04/04 08:55:51;;;;;;;4.07;1.80;;;11.70;99.90;;;;;;5072174;28;20110;-73
2024/04/04 08:58:18;;;;;;;6.57;1.77;;;11.80;99.90;;;;;;5065257;28;20555;-73
2024/04/04 09:00:46;;;;;;;4.03;1.80;;;12.10;99.90;;;;;;5070409;28;20069;-74
2024/04/04 09:03:12;;;;;;;4.32;1.48;;;14.80;99.90;;;;;;5073313;28;20039;-73
2024/04/04 09:05:49;;;;;;;4.03;1.80;;;17.00;99.90;;;;;;5074868;28;20031;-74
2024/04/04 09:08:15;;;;;;;7.15;2.08;;;17.50;99.10;;;;;;5074493;28;20131;-73
2024/04/04 09:10:41;;;;;;;3.45;1.15;;;18.60;98.10;;;;;;5073654;28;20115;-73
2024/04/04 09:13:07;;;;;;;5.53;1.58;;;19.40;96.40;;;;;;5073268;28;20513;-73
2024/04/04 09:15:36;;;;;;;3.58;1.48;;;19.00;95.50;;;;;;5073983;28;20036;-73
2024/04/04 09:18:05;;;;;;;2.70;1.10;;;19.70;96.20;;;;;;5072813;28;20096;-73
2024/04/04 09:20:32;;;;;;;4.45;1.10;;;20.20;95.00;;;;;;5073719;28;20035;-73
2024/04/04 09:23:00;;;;;;;1.83;0.90;;;19.80;95.60;;;;;;5074859;28;20131;-73
2024/04/04 09:25:26;;;;;;;4.60;1.73;;;20.10;95.60;;;;;;5074843;28;20043;-73
2024/04/04 09:27:52;;;;;;;2.85;1.10;;;20.50;94.90;;;;;;5074332;28;20032;-73
2024/04/04 09:30:19;;;;;;;2.47;1.08;;;19.40;94.60;;;;;;5074619;28;20117;-73
2024/04/04 09:32:48;;;;;;;4.50;1.10;;;19.40;94.90;;;;;;5074246;28;20056;-73
2024/04/04 09:35:14;;;;;;;2.88;1.35;;;19.70;94.80;;;;;;5074101;28;20028;-73
2024/04/04 09:37:40;;;;;;;9.38;2.28;;;19.40;95.10;;;;;;5074519;28;20567;-73
2024/04/04 09:40:07;;;;;;;3.67;1.40;;;19.00;95.30;;;;;;5074932;28;20044;-73
2024/04/04 09:42:33;;;;;;;3.67;1.70;;;18.00;95.90;;;;;;5074381;28;20126;-73
2024/04/04 09:44:59;;;;;;;4.40;1.35;;;17.20;96.30;;;;;;5075281;28;20540;-75
2024/04/04 09:47:26;;;;;;;5.55;1.02;;;16.10;97.60;;;;;;5074652;28;20048;-74
2024/04/04 09:49:53;;;;;;;3.75;1.20;;;15.20;97.90;;;;;;5074874;28;20040;-73
2024/04/04 09:52:24;;;;;;;3.97;1.70;;;14.70;98.90;;;;;;5073484;28;20036;-73
2024/04/04 09:54:50;;;;;;;4.05;1.30;;;14.40;99.80;;;;;;5074858;28;20078;-73
2024/04/04 09:57:16;;;;;;;2.60;1.08;;;14.40;99.90;;;;;;5073557;28;20124;-73
2024/04/04 09:59:42;;;;;;;2.90;1.17;;;14.40;99.50;;;;;;5074766;28;20028;-73
2024/04/04 10:02:08;;;;;;;4.18;1.88;;;14.40;99.90;;;;;;5074027;28;20016;-73
2024/04/04 10:04:35;;;;;;;2.97;1.30;;;14.40;99.90;;;;;;5073455;28;20036;-74
2024/04/04 10:07:01;;;;;;;2.55;0.90;;;14.60;99.90;;;;;;5072862;28;21314;-73
2024/04/04 10:09:38;;;;;;;3.33;1.45;;;14.70;99.70;;;;;;5072439;28;20040;-73
2024/04/04 10:12:14;;;;;;;3.13;1.23;;;14.70;99.90;;;;;;5074597;28;20569;-74
2024/04/04 10:14:54;;;;;;;4.57;1.83;;;14.50;99.20;;;;;;5077869;28;20040;-72
2024/04/04 10:17:20;;;;;;;4.30;1.00;;;14.40;99.20;;;;;;5076983;28;20036;-73
2024/04/04 10:19:48;;;;;;;2.33;1.15;;;14.80;99.70;;;;;;5076333;28;20032;-74
2024/04/04 10:22:17;;;;;;;4.07;1.15;;;15.10;99.90;;;;;;5075905;28;20028;-73
2024/04/04 10:24:43;;;;;;;4.63;1.88;;;15.20;99.90;;;;;;5076942;28;20036;-74
2024/04/04 10:27:11;;;;;;;5.05;1.52;;;15.30;99.00;;;;;;5075587;28;20043;-71
2024/04/04 10:29:38;;;;;;;2.35;1.35;;;15.40;99.10;;;;;;5078503;28;20361;-71
2024/04/04 10:32:08;;;;;;;2.53;1.23;;;15.50;99.60;;;;;;5078185;28;20482;-71
2024/04/04 10:34:34;;;;;;;4.90;1.80;;;15.50;98.50;;;;;;5076706;28;20159;-71
2024/04/04 10:37:00;;;;;;;3.25;1.10;;;15.50;99.00;;;;;;5077864;28;20151;-72
2024/04/04 10:39:26;;;;;;;3.50;1.30;;;15.60;99.20;;;;;;5078356;28;20083;-71
2024/04/04 10:41:56;;;;;;;3.08;1.17;;;15.80;99.60;;;;;;5077578;28;21177;-70
2024/04/04 10:44:22;;;;;;;3.05;1.35;;;15.80;98.10;;;;;;5077484;28;20061;-70
2024/04/04 10:46:55;;;;;;;2.10;1.25;;;16.00;98.70;;;;;;5077540;28;20032;-71
2024/04/04 10:49:23;;;;;;;3.17;1.65;;;16.30;99.00;;;;;;5078496;28;20040;-71
2024/04/04 10:52:01;;;;;;;2.70;1.10;;;16.30;98.70;;;;;;5076957;28;20032;-70
2024/04/04 10:54:28;;;;;;;2.75;0.80;;;16.10;97.60;;;;;;5075070;28;20024;-73
2024/04/04 10:56:54;;;;;;;3.75;1.42;;;16.20;98.80;;;;;;5073334;28;20977;-70
2024/04/04 10:59:20;;;;;;;22.20;12.32;;;16.00;98.40;;;;;;5074192;28;20114;-73
2024/04/04 11:01:47;;;;;;;13.18;7.22;;;16.00;98.30;;;;;;5075787;28;20417;-70
2024/04/04 11:04:14;;;;;;;5.53;1.77;;;16.00;98.40;;;;;;5075002;28;20521;-70
2024/04/04 11:06:41;;;;;;;4.95;1.52;;;16.00;98.10;;;;;;5076045;28;20020;-72
2024/04/04 11:09:12;;;;;;;4.40;1.07;;;16.10;98.10;;;;;;5075572;28;20040;-70
2024/04/04 11:11:45;;;;;;;3.72;0.82;;;16.30;97.60;;;;;;5074356;28;20025;-70
2024/04/04 11:14:11;;;;;;;4.40;1.85;;;16.40;98.10;;;;;;5074628;28;20032;-70
2024/04/04 11:16:40;;;;;;;3.72;0.95;;;16.40;97.90;;;;;;5073194;28;20042;-70
2024/04/04 11:19:07;;;;;;;2.85;1.13;;;16.60;98.30;;;;;;5076428;28;20393;-70
2024/04/04 11:21:33;;;;;;;3.92;0.93;;;16.80;98.60;;;;;;5077018;28;20020;-70
2024/04/04 11:23:58;;;;;;;5.40;0.77;;;17.10;98.10;;;;;;5076894;28;20550;-70
2024/04/04 11:26:24;;;;;;;2.72;0.95;;;17.30;97.10;;;;;;5076943;28;20032;-71
2024/04/04 11:28:50;;;;;;;2.60;1.30;;;17.60;97.50;;;;;;5076000;28;20043;-71
2024/04/04 11:31:16;;;;;;;2.47;1.17;;;17.50;96.40;;;;;;5076897;28;20624;-71
2024/04/04 11:33:42;;;;;;;6.95;1.50;;;17.40;96.50;;;;;;5076603;28;20119;-71
2024/04/04 11:36:08;;;;;;;2.45;0.90;;;17.50;97.10;;;;;;5076248;28;20032;-70
2024/04/04 11:38:34;;;;;;;5.35;1.13;;;17.50;97.50;;;;;;5075546;28;20047;-71
2024/04/04 11:41:00;;;;;;;4.22;1.15;;;17.20;96.60;;;;;;5076531;28;20440;-71
2024/04/04 11:43:26;;;;;;;3.80;1.00;;;16.90;97.30;;;;;;5076557;28;20038;-70
2024/04/04 11:45:52;;;;;;;1.63;0.85;;;16.90;97.80;;;;;;5077010;28;20020;-70
2024/04/04 11:48:18;;;;;;;2.70;0.80;;;17.30;97.00;;;;;;5075563;28;20036;-71
2024/04/04 11:50:44;;;;;;;3.80;1.10;;;17.50;97.60;;;;;;5076048;28;20632;-70
2024/04/04 11:53:11;;;;;;;2.90;1.40;;;17.70;97.40;;;;;;5077309;28;20024;-70
2024/04/04 11:55:38;;;;;;;2.58;1.00;;;18.00;98.00;;;;;;5075982;28;20032;-71
2024/04/04 11:58:04;;;;;;;5.03;1.05;;;18.30;98.30;;;;;;5071913;28;20417;-71
2024/04/04 12:00:30;;;;;;;4.65;1.13;;;18.30;97.30;;;;;;5073862;28;20040;-71
2024/04/04 12:02:57;;;;;;;3.40;1.38;;;18.30;96.60;;;;;;5073588;28;21408;-71
2024/04/04 12:05:24;;;;;;;2.25;0.90;;;18.60;97.60;;;;;;5073518;28;20202;-71
2024/04/04 12:07:50;;;;;;;3.60;1.20;;;18.80;97.00;;;;;;5072489;28;20040;-72
2024/04/04 12:10:17;;;;;;;2.53;1.17;;;18.70;96.60;;;;;;5072621;28;20043;-71
2024/04/04 12:12:43;;;;;;;2.35;1.00;;;18.80;96.30;;;;;;5071743;28;20028;-70
2024/04/04 12:15:08;;;;;;;3.20;1.27;;;19.00;96.50;;;;;;5071525;28;20036;-72
2024/04/04 12:17:39;;;;;;;3.90;1.40;;;19.00;96.80;;;;;;5070505;28;20043;-71
2024/04/04 12:20:16;;;;;;;2.65;0.98;;;19.00;96.50;;;;;;5071194;28;20036;-72
2024/04/04 12:22:42;;;;;;;1.95;0.90;;;18.90;96.20;;;;;;5073419;28;20028;-70
2024/04/04 12:25:08;;;;;;;2.33;0.75;;;19.00;95.90;;;;;;5072908;28;20075;-71
2024/04/04 12:27:34;;;;;;;1.52;0.50;;;19.20;95.70;;;;;;5072593;28;20053;-70
2024/04/04 12:30:00;;;;;;;2.35;0.85;;;19.50;96.10;;;;;;5072183;28;20136;-71
2024/04/04 12:32:26;;;;;;;4.22;1.20;;;19.30;95.90;;;;;;5072183;28;20493;-71
2024/04/04 12:34:52;;;;;;;2.97;1.30;;;19.30;95.00;;;;;;5072360;28;20036;-70
2024/04/04 12:37:18;;;;;;;3.13;1.10;;;19.20;94.90;;;;;;5072944;28;20035;-71
2024/04/04 12:39:43;;;;;;;6.15;1.35;;;19.40;95.80;;;;;;5073282;28;20059;-70
2024/04/04 12:42:09;;;;;;;2.08;0.85;;;19.50;95.70;;;;;;5071466;28;20058;-71
2024/04/04 12:44:34;;;;;;;2.30;1.02;;;19.70;95.30;;;;;;5072417;28;20127;-70
2024/04/04 12:47:00;;;;;;;3.00;0.98;;;19.40;95.30;;;;;;5072934;28;20131;-71
2024/04/04 12:49:26;;;;;;;2.33;0.90;;;19.40;95.70;;;;;;5072653;28;20345;-71
2024/04/04 12:51:53;;;;;;;4.35;1.27;;;19.60;95.30;;;;;;5071323;28;20040;-71